Time;durP1;ratioP1;P1;durP2;ratioP2;P2;SDS_P1;SDS_P2;PMS_P1;PMS_P2;Temp;Humidity;BMP_temperature;BMP_pressure;BME280_temperature;BME280_humidity;BME280_pressure;Samples;Min_cycle;Max_cycle;Signal;HPM_P1;HPM_P2
2022/06/07 00:02:10;;;;;;;;;;;;;;;24.15;22.76;100851.03;5092965;28;20038;-68
2022/06/07 00:04:35;;;;;;;;;;;;;;;24.15;22.52;100852.94;5094168;28;19970;-67
2022/06/07 00:07:01;;;;;;;;;;;;;;;24.13;22.59;100850.47;5097235;28;20347;-67
2022/06/07 00:09:26;;;;;;;;;;;;;;;24.13;22.61;100855.94;5096579;28;19924;-67
2022/06/07 00:11:52;;;;;;;;;;;;;;;24.12;22.61;100851.56;5096574;28;19970;-67
2022/06/07 00:14:17;;;;;;;;;;;;;;;24.12;22.46;100856.19;5096076;28;20429;-69
2022/06/07 00:16:42;;;;;;;;;;;;;;;24.13;22.33;100846.94;5096342;28;20327;-68
2022/06/07 00:19:07;;;;;;;;;;;;;;;24.12;22.66;100851.56;5096078;28;20010;-68
2022/06/07 00:21:32;;;;;;;;;;;;;;;24.11;22.29;100849.09;5095864;28;19926;-68
2022/06/07 00:24:01;;;;;;;;;;;;;;;24.11;22.41;100847.19;5096271;28;19920;-68
2022/06/07 00:26:29;;;;;;;;;;;;;;;24.11;22.42;100847.19;5095603;28;19930;-68
2022/06/07 00:28:54;;;;;;;;;;;;;;;24.11;22.33;100844.47;5077772;28;20350;-68
2022/06/07 00:31:20;;;;;;;;;;;;;;;24.11;22.37;100844.47;5096026;28;20007;-68
2022/06/07 00:33:45;;;;;;;;;;;;;;;24.11;22.31;100849.09;5096063;28;20350;-68
2022/06/07 00:36:10;;;;;;;;;;;;;;;24.10;22.40;100845.53;5095969;28;19916;-68
2022/06/07 00:38:35;;;;;;;;;;;;;;;24.10;22.36;100840.06;5095817;28;20358;-68
2022/06/07 00:41:03;;;;;;;;;;;;;;;24.09;22.36;100838.41;5095690;28;20257;-68
2022/06/07 00:43:28;;;;;;;;;;;;;;;24.09;22.30;100834.88;5096429;28;19919;-68
2022/06/07 00:45:53;;;;;;;;;;;;;;;24.10;22.28;100840.06;5095860;28;19942;-68
2022/06/07 00:48:19;;;;;;;;;;;;;;;24.09;22.23;100841.16;5095737;28;19916;-68
2022/06/07 00:50:49;;;;;;;;;;;;;;;24.07;22.26;100840.59;5095682;28;19916;-69
2022/06/07 00:53:33;;;;;;;;;;;;;;;24.08;22.31;100836.00;5077822;28;19927;-68
2022/06/07 00:55:58;;;;;;;;;;;;;;;24.07;22.21;100837.88;5095098;28;20359;-68
2022/06/07 00:58:25;;;;;;;;;;;;;;;24.07;22.32;100837.88;5095632;28;19922;-68
2022/06/07 01:00:51;;;;;;;;;;;;;;;24.07;22.24;100840.59;5095542;28;19950;-68
2022/06/07 01:03:16;;;;;;;;;;;;;;;24.07;22.17;100837.88;5095363;28;20010;-68
2022/06/07 01:05:42;;;;;;;;;;;;;;;24.08;22.18;100838.72;5095929;28;19970;-67
2022/06/07 01:10:52;;;;;;;;;;;;;;;24.07;22.38;100834.34;5095152;28;20004;-67
2022/06/07 01:13:19;;;;;;;;;;;;;;;24.07;22.15;100837.06;5095404;28;19955;-67
2022/06/07 01:15:45;;;;;;;;;;;;;;;24.07;22.22;100843.34;5094808;28;19939;-67
2022/06/07 01:18:10;;;;;;;;;;;;;;;24.08;22.21;100846.91;5095290;28;20033;-68
2022/06/07 01:20:36;;;;;;;;;;;;;;;24.06;22.30;100841.72;5094990;28;20275;-68
2022/06/07 01:23:01;;;;;;;;;;;;;;;24.06;22.15;100840.88;5095410;28;19916;-68
2022/06/07 01:25:26;;;;;;;;;;;;;;;24.06;22.37;100838.13;5094940;28;19919;-68
2022/06/07 01:27:51;;;;;;;;;;;;;;;24.05;22.19;100834.59;5094945;28;19916;-68
2022/06/07 01:30:17;;;;;;;;;;;;;;;24.06;22.17;100840.88;5077101;28;19916;-68
2022/06/07 01:32:42;;;;;;;;;;;;;;;24.04;22.13;100832.13;5095115;28;20371;-68
2022/06/07 01:35:07;;;;;;;;;;;;;;;24.05;22.17;100834.59;5095095;28;20362;-68
2022/06/07 01:37:33;;;;;;;;;;;;;;;24.05;22.45;100839.25;5094865;28;20367;-68
2022/06/07 01:42:42;;;;;;;;;;;;;;;24.03;22.27;100833.25;5094724;28;20312;-68
2022/06/07 01:45:07;;;;;;;;;;;;;;;24.04;22.04;100837.59;5094893;28;20347;-69
2022/06/07 01:47:33;;;;;;;;;;;;;;;24.03;22.25;100834.03;5094713;28;20347;-68
2022/06/07 01:49:58;;;;;;;;;;;;;;;24.03;22.26;100836.78;5095012;28;19916;-68
2022/06/07 01:52:24;;;;;;;;;;;;;;;24.03;22.37;100835.97;5095016;28;19928;-68
2022/06/07 01:54:51;;;;;;;;;;;;;;;24.04;22.08;100832.94;5095412;28;19920;-68
2022/06/07 01:57:16;;;;;;;;;;;;;;;24.04;22.11;100832.13;5095011;28;19916;-68
2022/06/07 01:59:42;;;;;;;;;;;;;;;24.04;22.19;100826.66;5094333;28;19916;-68
2022/06/07 02:02:07;;;;;;;;;;;;;;;24.03;22.26;100831.31;5094569;28;19923;-68
2022/06/07 02:04:37;;;;;;;;;;;;;;;24.03;22.12;100831.31;5094214;28;19916;-68
2022/06/07 02:07:03;;;;;;;;;;;;;;;24.03;22.50;100828.59;5094350;28;20014;-68
2022/06/07 02:09:28;;;;;;;;;;;;;;;24.03;22.22;100828.59;5094259;28;19958;-68
2022/06/07 02:11:53;;;;;;;;;;;;;;;24.02;22.27;100840.59;5075943;28;20426;-68
2022/06/07 02:14:19;;;;;;;;;;;;;;;24.02;22.18;100832.41;5094120;28;19923;-68
2022/06/07 02:16:44;;;;;;;;;;;;;;;24.02;22.46;100829.66;5094522;28;19920;-68
2022/06/07 02:19:09;;;;;;;;;;;;;;;24.02;22.18;100828.84;5094073;28;20050;-68
2022/06/07 02:21:35;;;;;;;;;;;;;;;24.02;22.34;100834.31;5093811;28;20227;-68
2022/06/07 02:24:01;;;;;;;;;;;;;;;24.01;22.37;100830.78;5093771;28;20015;-68
2022/06/07 02:26:26;;;;;;;;;;;;;;;24.02;22.31;100829.66;5093232;28;19948;-68
2022/06/07 02:28:56;;;;;;;;;;;;;;;24.02;22.49;100828.84;5093599;28;19923;-68
2022/06/07 02:31:21;;;;;;;;;;;;;;;24.00;22.54;100823.66;5075828;28;20353;-68
2022/06/07 02:33:47;;;;;;;;;;;;;;;24.00;22.45;100826.38;5093623;28;19947;-68
2022/06/07 02:36:12;;;;;;;;;;;;;;;24.00;22.49;100829.13;5093785;28;19920;-68
2022/06/07 02:38:37;;;;;;;;;;;;;;;24.00;22.72;100823.66;5075747;28;19922;-68
2022/06/07 02:41:03;;;;;;;;;;;;;;;24.00;22.52;100823.66;5075790;28;20258;-68
2022/06/07 02:43:29;;;;;;;;;;;;;;;23.99;22.58;100825.56;5093777;28;19969;-68
2022/06/07 02:45:55;;;;;;;;;;;;;;;23.98;22.44;100823.09;5093458;28;20405;-68
2022/06/07 02:48:20;;;;;;;;;;;;;;;23.98;22.46;100823.91;5093419;28;19920;-68
2022/06/07 02:50:45;;;;;;;;;;;;;;;24.00;22.60;100826.38;5093430;28;19924;-68
2022/06/07 02:53:12;;;;;;;;;;;;;;;24.00;22.78;100826.38;5094166;28;19927;-68
2022/06/07 02:55:37;;;;;;;;;;;;;;;23.98;22.87;100823.91;5093711;28;19920;-68
2022/06/07 02:58:03;;;;;;;;;;;;;;;24.00;22.70;100829.13;5093648;28;20434;-68
2022/06/07 03:00:28;;;;;;;;;;;;;;;23.99;22.94;100816.53;5093661;28;20231;-68
2022/06/07 03:02:53;;;;;;;;;;;;;;;24.02;23.00;100823.41;5093831;28;20270;-68
2022/06/07 03:05:18;;;;;;;;;;;;;;;24.05;22.77;100822.88;5093647;28;19923;-68
2022/06/07 03:07:44;;;;;;;;;;;;;;;24.06;22.83;100817.13;5093711;28;20011;-68
2022/06/07 03:10:09;;;;;;;;;;;;;;;24.08;23.18;100817.69;5093238;28;20388;-68
2022/06/07 03:12:35;;;;;;;;;;;;;;;24.11;22.97;100819.03;5093369;28;20006;-69
2022/06/07 03:15:00;;;;;;;;;;;;;;;24.15;23.09;100812.78;5093491;28;20328;-68
2022/06/07 03:17:25;;;;;;;;;;;;;;;24.18;22.87;100812.25;5093356;28;20373;-68
2022/06/07 03:19:50;;;;;;;;;;;;;;;24.22;22.93;100811.72;5093129;28;19975;-68
2022/06/07 03:22:16;;;;;;;;;;;;;;;24.25;23.12;100813.91;5093367;28;19923;-67
2022/06/07 03:24:41;;;;;;;;;;;;;;;24.27;23.23;100812.56;5092797;28;19931;-68
2022/06/07 03:27:07;;;;;;;;;;;;;;;24.32;23.07;100817.22;5093283;28;19916;-68
2022/06/07 03:29:32;;;;;;;;;;;;;;;24.37;23.30;100814.50;5093216;28;20003;-68
2022/06/07 03:31:57;;;;;;;;;;;;;;;24.41;23.22;100810.13;5092848;28;19962;-68
2022/06/07 03:34:22;;;;;;;;;;;;;;;24.44;23.30;100811.50;5093238;28;19919;-68
2022/06/07 03:36:48;;;;;;;;;;;;;;;24.46;23.54;100809.34;5093394;28;20377;-68
2022/06/07 03:39:13;;;;;;;;;;;;;;;24.49;23.56;100800.56;5095319;28;19916;-69
2022/06/07 03:41:38;;;;;;;;;;;;;;;24.52;23.51;100810.97;5097058;28;19920;-68
2022/06/07 03:44:04;;;;;;;;;;;;;;;24.53;23.34;100802.50;5096959;28;20004;-68
2022/06/07 03:46:33;;;;;;;;;;;;;;;24.54;23.69;100806.06;5097099;28;19934;-69
2022/06/07 03:49:01;;;;;;;;;;;;;;;24.58;23.37;100807.19;5096911;28;19962;-70
2022/06/07 03:51:27;;;;;;;;;;;;;;;24.60;23.60;100806.94;5096911;28;19939;-68
2022/06/07 03:53:52;;;;;;;;;;;;;;;24.61;23.69;100808.53;5096827;28;20386;-68
2022/06/07 03:56:18;;;;;;;;;;;;;;;24.64;23.54;100803.34;5096602;28;19925;-68
2022/06/07 03:58:43;;;;;;;;;;;;;;;24.70;23.71;100801.47;5078344;28;19920;-68
2022/06/07 04:01:09;;;;;;;;;;;;;;;24.69;23.61;100805.28;5096677;28;20015;-67
2022/06/07 04:03:34;;;;;;;;;;;;;;;24.71;23.77;100794.91;5096968;28;19970;-67
2022/06/07 04:06:00;;;;;;;;;;;;;;;24.71;23.93;100797.63;5096567;28;20366;-67
2022/06/07 04:08:28;;;;;;;;;;;;;;;24.75;23.50;100798.75;5078747;28;20365;-67
2022/06/07 04:10:58;;;;;;;;;;;;;;;24.79;23.84;100799.81;5096162;28;20350;-68
2022/06/07 04:13:23;;;;;;;;;;;;;;;24.80;23.64;100790.53;5096995;28;19996;-68
2022/06/07 04:15:48;;;;;;;;;;;;;;;24.82;23.96;100802.03;5096367;28;19965;-68
2022/06/07 04:18:14;;;;;;;;;;;;;;;24.83;23.96;100795.44;5096167;28;20041;-68
2022/06/07 04:20:39;;;;;;;;;;;;;;;24.87;23.79;100785.63;5096179;28;20374;-67
2022/06/07 04:23:05;;;;;;;;;;;;;;;24.89;23.81;100794.34;5096140;28;19916;-67
2022/06/07 04:25:32;;;;;;;;;;;;;;;24.90;24.13;100795.16;5095894;28;19924;-67
2022/06/07 04:27:57;;;;;;;;;;;;;;;24.89;24.21;100794.34;5096363;28;19920;-69
2022/06/07 04:30:23;;;;;;;;;;;;;;;24.93;24.08;100795.44;5090933;28;20267;-69
2022/06/07 04:32:51;;;;;;;;;;;;;;;24.96;24.28;100805.03;5075787;28;19917;-68
2022/06/07 04:35:18;;;;;;;;;;;;;;;24.99;24.10;100792.72;5057428;28;19920;-68
2022/06/07 04:37:46;;;;;;;;;;;;;;;25.01;24.47;100790.50;5075514;28;19932;-68
2022/06/07 04:40:12;;;;;;;;;;;;;;;25.01;24.40;100785.03;5076062;28;20039;-68
2022/06/07 04:42:37;;;;;;;;;;;;;;;25.06;24.34;100787.78;5075614;28;20379;-68
2022/06/07 04:45:03;;;;;;;;;;;;;;;25.06;24.34;100790.50;5057714;28;20371;-68
2022/06/07 04:47:28;;;;;;;;;;;;;;;25.08;24.31;100786.41;5075434;28;19924;-67
2022/06/07 04:49:53;;;;;;;;;;;;;;;25.10;24.38;100786.97;5074637;28;20411;-67
2022/06/07 04:52:18;;;;;;;;;;;;;;;25.12;24.43;100775.75;5075367;28;20287;-68
2022/06/07 04:54:44;;;;;;;;;;;;;;;25.14;24.64;100776.28;5075356;28;19917;-68
2022/06/07 04:57:09;;;;;;;;;;;;;;;25.15;24.49;100785.31;5075299;28;19917;-69
2022/06/07 04:59:34;;;;;;;;;;;;;;;25.16;24.44;100785.03;5075857;28;19917;-69
2022/06/07 05:02:00;;;;;;;;;;;;;;;25.21;24.62;100790.50;5075076;28;20012;-69
2022/06/07 05:04:25;;;;;;;;;;;;;;;25.22;24.79;100785.84;5074874;28;19936;-68
2022/06/07 05:06:51;;;;;;;;;;;;;;;25.19;24.94;100783.66;5075172;28;19921;-70
2022/06/07 05:09:17;;;;;;;;;;;;;;;25.11;25.19;100780.41;5074337;28;19923;-69
2022/06/07 05:11:45;;;;;;;;;;;;;;;25.24;25.14;100787.22;5056607;28;19927;-69
2022/06/07 05:14:10;;;;;;;;;;;;;;;25.24;25.28;100781.72;5074856;28;19920;-69
2022/06/07 05:16:37;;;;;;;;;;;;;;;25.25;25.59;100777.06;5074856;28;19923;-69
2022/06/07 05:19:02;;;;;;;;;;;;;;;25.26;25.47;100776.84;5057016;28;20011;-69
2022/06/07 05:21:27;;;;;;;;;;;;;;;25.28;25.37;100774.66;5074446;28;20382;-68
2022/06/07 05:23:52;;;;;;;;;;;;;;;25.14;25.65;100776.28;5074219;28;19931;-68
2022/06/07 05:26:20;;;;;;;;;;;;;;;25.30;25.29;100779.84;5074336;28;19921;-68
2022/06/07 05:28:45;;;;;;;;;;;;;;;25.32;25.20;100774.09;5056637;28;19917;-69
2022/06/07 05:31:10;;;;;;;;;;;;;;;25.33;25.37;100786.69;5074064;28;19927;-69
2022/06/07 05:33:36;;;;;;;;;;;;;;;25.35;25.56;100779.00;5073957;28;19924;-69
2022/06/07 05:36:02;;;;;;;;;;;;;;;25.40;25.26;100788.03;5074051;28;19916;-68
2022/06/07 05:38:27;;;;;;;;;;;;;;;25.41;25.16;100784.19;5056058;28;19916;-68
2022/06/07 05:40:52;;;;;;;;;;;;;;;25.44;25.18;100780.91;5073825;28;19923;-69
2022/06/07 05:43:17;;;;;;;;;;;;;;;25.46;25.38;100775.97;5074181;28;19928;-69
2022/06/07 05:45:46;;;;;;;;;;;;;;;25.50;24.97;100770.75;5073790;28;20302;-69
2022/06/07 05:48:11;;;;;;;;;;;;;;;25.50;25.13;100765.28;5074712;28;19939;-69
2022/06/07 05:50:36;;;;;;;;;;;;;;;25.42;25.12;100768.59;5074038;28;20371;-68
2022/06/07 05:53:02;;;;;;;;;;;;;;;25.51;25.11;100769.69;5074143;28;19935;-69
2022/06/07 05:55:27;;;;;;;;;;;;;;;25.63;24.73;100770.19;5074514;28;19960;-69
2022/06/07 05:57:54;;;;;;;;;;;;;;;25.65;24.76;100773.44;5073772;28;19916;-68
2022/06/07 06:00:20;;;;;;;;;;;;;;;25.61;24.93;100775.13;5073453;28;20320;-69
2022/06/07 06:02:48;;;;;;;;;;;;;;;25.55;24.82;100762.53;5073348;28;19923;-68
2022/06/07 06:05:14;;;;;;;;;;;;;;;25.64;24.47;100763.59;5073770;28;19917;-68
2022/06/07 06:10:23;;;;;;;;;;;;;;;25.67;24.41;100764.97;5073626;28;19971;-68
2022/06/07 06:12:48;;;;;;;;;;;;;;;25.66;24.56;100763.31;5073676;28;19921;-69
2022/06/07 06:15:14;;;;;;;;;;;;;;;25.66;24.70;100764.16;5073078;28;19916;-69
2022/06/07 06:17:40;;;;;;;;;;;;;;;25.65;24.42;100756.22;5073596;28;19974;-69
2022/06/07 06:20:05;;;;;;;;;;;;;;;25.64;24.20;100760.84;5073610;28;19920;-69
2022/06/07 06:22:30;;;;;;;;;;;;;;;25.73;23.71;100761.09;5074006;28;19927;-70
2022/06/07 06:24:56;;;;;;;;;;;;;;;25.74;23.72;100754.53;5078217;28;19981;-68
2022/06/07 06:27:21;;;;;;;;;;;;;;;25.76;23.55;100751.50;5093653;28;19931;-69
2022/06/07 06:29:46;;;;;;;;;;;;;;;25.76;23.64;100755.06;5094288;28;20073;-69
2022/06/07 06:32:12;;;;;;;;;;;;;;;25.81;23.41;100759.69;5093445;28;20412;-68
2022/06/07 06:34:37;;;;;;;;;;;;;;;25.76;23.53;100757.00;5093497;28;20250;-68
2022/06/07 06:37:02;;;;;;;;;;;;;;;25.62;23.44;100754.84;5093117;28;19939;-68
2022/06/07 06:39:28;;;;;;;;;;;;;;;25.79;23.42;100756.44;5093283;28;19957;-68
2022/06/07 06:41:54;;;;;;;;;;;;;;;25.77;23.71;100761.38;5093430;28;19962;-69
2022/06/07 06:44:19;;;;;;;;;;;;;;;25.80;23.44;100749.84;5093394;28;19967;-68
2022/06/07 06:46:45;;;;;;;;;;;;;;;25.79;23.74;100753.69;5093565;28;20367;-68
2022/06/07 06:49:11;;;;;;;;;;;;;;;25.83;23.39;100757.50;5093145;28;20375;-69
2022/06/07 06:51:36;;;;;;;;;;;;;;;25.88;23.43;100767.63;5093461;28;20021;-69
2022/06/07 06:54:02;;;;;;;;;;;;;;;25.88;23.18;100759.41;5093836;28;19916;-69
2022/06/07 06:56:29;;;;;;;;;;;;;;;25.84;23.14;100762.69;5093423;28;20354;-68
2022/06/07 06:58:55;;;;;;;;;;;;;;;25.88;22.89;100760.22;5093102;28;19916;-69
2022/06/07 07:01:22;;;;;;;;;;;;;;;25.94;23.00;100750.91;5075686;28;19963;-69
2022/06/07 07:03:47;;;;;;;;;;;;;;;25.96;22.83;100758.84;5093126;28;20338;-69
2022/06/07 07:06:12;;;;;;;;;;;;;;;25.99;22.77;100756.38;5093420;28;20006;-70
2022/06/07 07:08:38;;;;;;;;;;;;;;;25.89;22.54;100750.06;5093331;28;19916;-69
2022/06/07 07:11:04;;;;;;;;;;;;;;;26.03;22.48;100751.13;5092725;28;19916;-69
2022/06/07 07:13:30;;;;;;;;;;;;;;;25.94;22.29;100748.19;5094779;28;20363;-69
2022/06/07 07:15:55;;;;;;;;;;;;;;;25.89;22.43;100742.69;5097067;28;19924;-70
2022/06/07 07:18:20;;;;;;;;;;;;;;;25.98;22.18;100748.44;5097406;28;19916;-70
2022/06/07 07:20:46;;;;;;;;;;;;;;;26.02;22.13;100744.81;5097852;28;19916;-68
2022/06/07 07:23:11;;;;;;;;;;;;;;;26.13;22.34;100750.25;5097041;28;19920;-68
2022/06/07 07:25:36;;;;;;;;;;;;;;;26.28;21.99;100744.66;5096347;28;20258;-68
2022/06/07 07:28:01;;;;;;;;;;;;;;;26.36;21.71;100744.06;5096697;28;19920;-69
2022/06/07 07:30:29;;;;;;;;;;;;;;;26.36;21.34;100733.09;5097168;28;20368;-70
2022/06/07 07:32:54;;;;;;;;;;;;;;;26.46;20.95;100736.88;5097745;28;19916;-69
2022/06/07 07:35:19;;;;;;;;;;;;;;;26.41;20.81;100733.06;5097525;28;19916;-69
2022/06/07 07:37:45;;;;;;;;;;;;;;;26.51;20.45;100731.34;5097023;28;19920;-70
2022/06/07 07:40:10;;;;;;;;;;;;;;;26.57;20.00;100733.75;5096506;28;19920;-69
2022/06/07 07:42:35;;;;;;;;;;;;;;;26.44;20.47;100737.19;5096230;28;19916;-69
2022/06/07 07:45:00;;;;;;;;;;;;;;;26.42;20.48;100731.97;5078209;28;19930;-69
2022/06/07 07:47:26;;;;;;;;;;;;;;;26.40;20.51;100728.69;5097186;28;20057;-70
2022/06/07 07:49:52;;;;;;;;;;;;;;;26.40;20.29;100727.88;5098433;28;19962;-70
2022/06/07 07:52:19;;;;;;;;;;;;;;;26.39;20.13;100732.53;5098092;28;19924;-70
2022/06/07 07:54:44;;;;;;;;;;;;;;;26.35;20.42;100725.97;5096644;28;19916;-69
2022/06/07 07:57:10;;;;;;;;;;;;;;;26.41;20.35;100729.53;5096498;28;20408;-70
2022/06/07 07:59:35;;;;;;;;;;;;;;;26.40;20.44;100725.94;5096822;28;19916;-69
2022/06/07 08:02:00;;;;;;;;;;;;;;;26.40;20.30;100728.69;5096864;28;20335;-68
2022/06/07 08:04:26;;;;;;;;;;;;;;;26.40;20.41;100727.88;5097513;28;19999;-69
2022/06/07 08:06:51;;;;;;;;;;;;;;;26.40;20.00;100731.41;5097851;28;20318;-67
2022/06/07 08:09:16;;;;;;;;;;;;;;;26.46;19.96;100725.91;5096874;28;19916;-70
2022/06/07 08:11:42;;;;;;;;;;;;;;;26.45;20.01;100727.03;5096723;28;19916;-69
2022/06/07 08:14:08;;;;;;;;;;;;;;;26.46;19.98;100720.44;5097153;28;19916;-68
2022/06/07 08:16:34;;;;;;;;;;;;;;;26.41;20.12;100724.84;5095595;28;20334;-68
2022/06/07 08:18:59;;;;;;;;;;;;;;;26.39;19.90;100721.59;5095901;28;20018;-69
2022/06/07 08:21:26;;;;;;;;;;;;;;;26.40;19.98;100712.25;5096040;28;19999;-68
2022/06/07 08:23:52;;;;;;;;;;;;;;;26.38;19.99;100714.47;5097660;28;20293;-69
2022/06/07 08:26:18;;;;;;;;;;;;;;;26.38;19.49;100713.66;5076740;28;19920;-68
2022/06/07 08:28:44;;;;;;;;;;;;;;;26.35;19.68;100712.28;5095530;28;20015;-69
2022/06/07 08:31:13;;;;;;;;;;;;;;;26.38;19.79;100708.97;5095462;28;20385;-69
2022/06/07 08:39:06;;;;;;;;;;;;;;;26.37;19.60;100704.63;5095579;28;19923;-68
2022/06/07 08:41:32;;;;;;;;;;;;;;;26.37;19.64;100707.34;5095606;28;19920;-68
2022/06/07 08:44:05;;;;;;;;;;;;;;;26.36;19.41;100694.75;5095274;28;19960;-69
2022/06/07 08:46:33;;;;;;;;;;;;;;;26.38;19.36;100691.72;5095493;28;19926;-68
2022/06/07 08:48:58;;;;;;;;;;;;;;;26.25;19.64;100687.72;5095233;28;19916;-68
2022/06/07 08:51:25;;;;;;;;;;;;;;;26.35;19.36;100687.63;5095331;28;19924;-68
2022/06/07 08:53:56;;;;;;;;;;;;;;;26.31;19.73;100683.81;5077413;28;19916;-68
2022/06/07 08:56:29;;;;;;;;;;;;;;;26.28;19.70;100681.66;5094701;28;19923;-68
2022/06/07 08:58:55;;;;;;;;;;;;;;;26.37;19.79;100682.69;5076860;28;19978;-69
2022/06/07 09:01:47;;;;;;;;;;;;;;;26.37;19.45;100677.22;5095171;28;19955;-69
2022/06/07 09:04:17;;;;;;;;;;;;;;;26.32;19.62;100685.47;5088071;28;20313;-68
2022/06/07 09:06:43;;;;;;;;;;;;;;;26.36;19.52;100682.97;5077065;28;19948;-68
2022/06/07 09:09:08;;;;;;;;;;;;;;;26.41;19.50;100680.19;5094776;28;20006;-68
2022/06/07 09:14:21;;;;;;;;;;;;;;;26.39;19.09;100675.00;5095221;28;19970;-69
2022/06/07 09:16:47;;;;;;;;;;;;;;;26.42;19.11;100670.84;5094715;28;20016;-68
2022/06/07 09:19:14;;;;;;;;;;;;;;;26.39;19.09;100664.03;5094811;28;20007;-69
2022/06/07 09:21:41;;;;;;;;;;;;;;;26.47;19.08;100657.13;5095003;28;19923;-70
2022/06/07 09:24:25;;;;;;;;;;;;;;;26.52;19.06;100661.75;5094793;28;19916;-69
2022/06/07 09:26:50;;;;;;;;;;;;;;;26.41;18.96;100664.56;5074296;28;20004;-69
2022/06/07 09:29:20;;;;;;;;;;;;;;;26.40;19.12;100657.44;5074135;28;20351;-69
2022/06/07 09:31:45;;;;;;;;;;;;;;;26.30;19.20;100657.56;5074362;28;19916;-70
2022/06/07 09:34:29;;;;;;;;;;;;;;;26.27;19.58;100658.13;5073659;28;19920;-69
2022/06/07 09:37:04;;;;;;;;;;;;;;;26.40;19.02;100651.16;5073646;28;19916;-70
2022/06/07 09:39:30;;;;;;;;;;;;;;;26.43;19.49;100648.66;5073929;28;20012;-70
2022/06/07 09:41:59;;;;;;;;;;;;;;;26.38;19.21;100648.69;5074589;28;20377;-70
2022/06/07 09:44:26;;;;;;;;;;;;;;;26.42;19.27;100644.28;5058603;28;19929;-70
2022/06/07 09:46:51;;;;;;;;;;;;;;;26.47;19.21;100639.88;5066451;28;19970;-68
2022/06/07 09:49:35;;;;;;;;;;;;;;;26.39;19.22;100633.91;5074591;28;19916;-70
2022/06/07 09:52:28;;;;;;;;;;;;;;;26.44;19.14;100630.31;5074473;28;19932;-69
2022/06/07 09:55:01;;;;;;;;;;;;;;;26.55;18.90;100629.09;5074415;28;19920;-68
2022/06/07 09:57:40;;;;;;;;;;;;;;;26.61;18.57;100619.72;5074710;28;19922;-69
2022/06/07 10:00:11;;;;;;;;;;;;;;;26.62;18.59;100623.31;5056812;28;20003;-69
2022/06/07 10:02:39;;;;;;;;;;;;;;;26.52;18.88;100615.16;5074192;28;19917;-69
2022/06/07 10:05:10;;;;;;;;;;;;;;;26.53;18.92;100620.34;5073301;28;20357;-70
2022/06/07 10:07:54;;;;;;;;;;;;;;;26.47;18.85;100616.00;5073549;28;20421;-69
2022/06/07 10:10:38;;;;;;;;;;;;;;;26.73;18.47;100613.88;5073737;28;20004;-69
2022/06/07 10:13:16;;;;;;;;;;;;;;;26.77;18.69;100612.19;5073360;28;19924;-69
2022/06/07 10:15:48;;;;;;;;;;;;;;;26.75;18.39;100608.91;5073024;28;20378;-68
2022/06/07 10:18:17;;;;;;;;;;;;;;;26.71;18.45;100605.09;5073564;28;19916;-68
2022/06/07 10:20:45;;;;;;;;;;;;;;;26.69;18.66;100607.31;5073283;28;19970;-68
2022/06/07 10:23:28;;;;;;;;;;;;;;;26.72;18.53;100605.94;5073653;28;19924;-68
2022/06/07 10:25:57;;;;;;;;;;;;;;;26.56;18.56;100611.56;5085779;28;20014;-69
2022/06/07 10:28:32;;;;;;;;;;;;;;;26.61;18.65;100618.88;5093973;28;19916;-70
2022/06/07 10:31:00;;;;;;;;;;;;;;;26.71;18.24;100607.84;5094702;28;19923;-68
2022/06/07 10:33:34;;;;;;;;;;;;;;;26.71;18.38;100607.84;5094455;28;20012;-68
2022/06/07 10:36:08;;;;;;;;;;;;;;;26.61;18.56;100603.28;5093399;28;19927;-68
2022/06/07 10:38:46;;;;;;;;;;;;;;;26.71;18.36;100591.41;5075411;28;19927;-68
2022/06/07 10:41:31;;;;;;;;;;;;;;;26.73;18.31;100602.91;5093165;28;19920;-67
2022/06/07 10:43:59;;;;;;;;;;;;;;;26.83;18.25;100596.47;5093754;28;19917;-68
2022/06/07 10:46:24;;;;;;;;;;;;;;;26.88;18.02;100590.13;5093191;28;19937;-68
2022/06/07 10:48:54;;;;;;;;;;;;;;;26.87;17.86;100589.31;5092755;28;20002;-68
2022/06/07 10:54:14;;;;;;;;;;;;;;;26.85;18.06;100585.22;5093453;28;20006;-68
2022/06/07 10:56:44;;;;;;;;;;;;;;;26.88;18.07;100590.13;5093004;28;19916;-69
2022/06/07 10:59:17;;;;;;;;;;;;;;;26.94;18.05;100589.78;5074996;28;20362;-68
2022/06/07 11:01:45;;;;;;;;;;;;;;;26.91;18.01;100579.38;5075474;28;19916;-71
2022/06/07 11:10:22;;;;;;;;;;;;;;;26.83;18.07;100579.22;5093122;28;20019;-69
2022/06/07 11:12:50;;;;;;;;;;;;;;;26.81;18.01;100573.22;5076192;28;20009;-70
2022/06/07 11:15:16;;;;;;;;;;;;;;;26.80;18.04;100577.88;5093327;28;19917;-70
2022/06/07 11:17:50;;;;;;;;;;;;;;;26.73;18.33;100575.50;5093573;28;19922;-69
2022/06/07 11:20:21;;;;;;;;;;;;;;;26.61;18.37;100570.38;5093412;28;20021;-69
2022/06/07 11:22:55;;;;;;;;;;;;;;;26.69;18.08;100570.88;5075519;28;19916;-69
2022/06/07 11:25:39;;;;;;;;;;;;;;;26.68;18.12;100567.34;5093342;28;19927;-70
2022/06/07 11:28:07;;;;;;;;;;;;;;;26.66;18.37;100572.25;5094435;28;19971;-69
2022/06/07 11:30:36;;;;;;;;;;;;;;;26.56;18.42;100564.13;5075446;28;19943;-69
2022/06/07 11:33:01;;;;;;;;;;;;;;;26.40;18.56;100563.47;5093574;28;19920;-69
2022/06/07 11:35:45;;;;;;;;;;;;;;;26.53;18.23;100570.22;5093545;28;19916;-69
2022/06/07 11:38:17;;;;;;;;;;;;;;;26.55;18.32;100566.06;5093682;28;19920;-70
2022/06/07 11:40:42;;;;;;;;;;;;;;;26.66;18.19;100568.72;5093437;28;19916;-70
2022/06/07 11:43:27;;;;;;;;;;;;;;;26.73;17.93;100563.69;5075137;28;19916;-69
2022/06/07 11:45:53;;;;;;;;;;;;;;;26.76;18.05;100566.66;5092549;28;19916;-71
2022/06/07 11:48:21;;;;;;;;;;;;;;;26.73;18.05;100560.94;5093100;28;19916;-70
2022/06/07 11:51:08;;;;;;;;;;;;;;;26.77;18.15;100557.34;5092471;28;19916;-69
2022/06/07 11:53:33;;;;;;;;;;;;;;;26.79;18.23;100557.88;5075007;28;19947;-69
2022/06/07 11:56:18;;;;;;;;;;;;;;;26.75;18.47;100551.34;5074829;28;20355;-69
2022/06/07 11:58:57;;;;;;;;;;;;;;;26.75;18.37;100551.34;5031050;28;19961;-70
2022/06/07 12:01:34;;;;;;;;;;;;;;;26.71;18.15;100553.03;5034357;28;19951;-65
2022/06/07 12:04:26;;;;;;;;;;;;;;;26.75;18.25;100542.28;5034275;28;20035;-68
2022/06/07 12:06:51;;;;;;;;;;;;;;;26.74;17.93;100548.91;5032190;28;19967;-68
2022/06/07 12:09:17;;;;;;;;;;;;;;;26.73;18.05;100536.28;5034066;28;20045;-68
2022/06/07 12:11:42;;;;;;;;;;;;;;;26.68;18.05;100528.97;5033646;28;19917;-68
2022/06/07 12:14:24;;;;;;;;;;;;;;;26.74;17.86;100533.25;5033846;28;19917;-69
2022/06/07 12:16:50;;;;;;;;;;;;;;;26.74;17.99;100533.25;5033742;28;20363;-68
2022/06/07 12:19:18;;;;;;;;;;;;;;;26.82;17.83;100528.22;5033749;28;19923;-68
2022/06/07 12:21:45;;;;;;;;;;;;;;;26.85;17.50;100546.84;5033882;28;19918;-69
2022/06/07 12:24:15;;;;;;;;;;;;;;;26.79;17.81;100527.69;5017431;28;19921;-68
2022/06/07 12:26:40;;;;;;;;;;;;;;;26.84;17.87;100528.75;5014128;28;19927;-69
2022/06/07 12:29:25;;;;;;;;;;;;;;;26.87;17.83;100539.13;5014392;28;20000;-71
2022/06/07 12:32:00;;;;;;;;;;;;;;;26.90;17.56;100533.06;5021808;28;19924;-69
2022/06/07 12:34:30;;;;;;;;;;;;;;;26.91;17.61;100523.75;5034129;28;20008;-69
2022/06/07 12:36:59;;;;;;;;;;;;;;;26.92;17.34;100531.69;5073293;28;19916;-69
2022/06/07 12:39:25;;;;;;;;;;;;;;;26.89;17.25;100529.50;5076003;28;19939;-69
2022/06/07 12:41:56;;;;;;;;;;;;;;;26.88;17.48;100518.84;5076171;28;20320;-69
2022/06/07 12:44:31;;;;;;;;;;;;;;;26.88;17.21;100518.84;5076075;28;20393;-69
2022/06/07 12:46:57;;;;;;;;;;;;;;;26.88;17.42;100513.34;5075878;28;19916;-68
2022/06/07 12:49:24;;;;;;;;;;;;;;;26.88;17.24;100507.88;5058364;28;19967;-68
2022/06/07 12:51:58;;;;;;;;;;;;;;;26.97;17.11;100511.56;5076618;28;19943;-69
2022/06/07 12:54:24;;;;;;;;;;;;;;;26.94;17.21;100512.16;5076337;28;19921;-69
2022/06/07 12:56:50;;;;;;;;;;;;;;;26.89;17.25;100510.31;5058505;28;20346;-68
2022/06/07 12:59:34;;;;;;;;;;;;;;;26.89;17.35;100493.03;5075640;28;19916;-69
2022/06/07 13:02:00;;;;;;;;;;;;;;;26.90;17.29;100498.22;5075305;28;19944;-69
2022/06/07 13:04:25;;;;;;;;;;;;;;;26.88;17.25;100488.69;5057611;28;19952;-69